createdAt,value
2023-02-12T00:01:40.712Z,41.50
2023-02-12T00:04:09.113Z,48.70
2023-02-12T00:06:39.282Z,43.60
2023-02-12T00:09:07.919Z,50.00
2023-02-12T00:11:36.364Z,51.40
2023-02-12T00:14:05.724Z,51.40
2023-02-12T00:16:34.156Z,51.40
2023-02-12T00:19:02.606Z,52.10
2023-02-12T00:21:31.070Z,54.50
2023-02-12T00:23:59.412Z,52.10
2023-02-12T00:26:28.500Z,55.20
2023-02-12T00:28:57.102Z,48.70
2023-02-12T00:31:29.455Z,43.90
2023-02-12T00:33:59.424Z,59.10
2023-02-12T00:36:29.488Z,56.40
2023-02-12T00:38:58.194Z,46.60
2023-02-12T00:41:30.248Z,46.70
2023-02-12T00:43:58.811Z,51.00
2023-02-12T00:46:27.888Z,56.40
2023-02-12T00:48:56.399Z,53.80
2023-02-12T00:51:24.899Z,61.80
2023-02-12T00:53:53.127Z,52.10
2023-02-12T00:56:21.512Z,53.30
2023-02-12T00:58:51.093Z,55.40
2023-02-12T01:01:22.702Z,50.60
2023-02-12T01:03:51.279Z,52.90
2023-02-12T01:06:21.230Z,48.70
2023-02-12T01:08:53.439Z,52.10
2023-02-12T01:11:22.054Z,49.90
2023-02-12T01:13:50.741Z,46.10
2023-02-12T01:16:22.186Z,56.30
2023-02-12T01:18:55.810Z,58.90
2023-02-12T01:21:28.129Z,53.80
2023-02-12T01:23:57.726Z,48.00
2023-02-12T01:26:27.414Z,46.80
2023-02-12T01:29:01.412Z,53.50
2023-02-12T01:31:33.352Z,54.90
2023-02-12T01:34:05.979Z,56.20
2023-02-12T01:36:37.536Z,47.90
2023-02-12T01:39:11.944Z,47.10
2023-02-12T01:41:45.372Z,56.00
2023-02-12T01:44:36.957Z,52.50
2023-02-12T01:47:06.557Z,49.40
2023-02-12T01:49:40.707Z,46.10
2023-02-12T01:52:27.552Z,55.40
2023-02-12T01:55:00.613Z,54.30
2023-02-12T01:57:32.514Z,56.70
2023-02-12T02:00:03.784Z,55.80
2023-02-12T02:02:47.628Z,51.60
2023-02-12T02:05:24.087Z,45.80
2023-02-12T02:07:53.900Z,52.80
2023-02-12T02:10:22.447Z,52.70
2023-02-12T02:13:09.542Z,58.50
2023-02-12T02:15:42.145Z,55.30
2023-02-12T02:18:27.297Z,56.50
2023-02-12T02:21:40.639Z,58.40
2023-02-12T02:24:46.114Z,56.50
2023-02-12T02:27:33.727Z,67.20
2023-02-12T02:30:35.873Z,58.40
2023-02-12T02:33:33.490Z,66.90
2023-02-12T02:36:10.760Z,54.50
2023-02-12T02:38:55.933Z,56.70
2023-02-12T02:41:47.779Z,62.90
2023-02-12T02:44:26.917Z,54.20
2023-02-12T02:47:00.679Z,51.80
2023-02-12T02:49:38.375Z,54.30
2023-02-12T02:52:20.906Z,52.70
2023-02-12T02:54:54.880Z,50.10
2023-02-12T02:57:23.128Z,50.00
2023-02-12T02:59:58.474Z,55.40
2023-02-12T03:02:35.964Z,54.20
2023-02-12T03:05:17.835Z,55.90
2023-02-12T03:07:53.919Z,55.30
2023-02-12T03:10:32.767Z,46.10
2023-02-12T03:13:11.353Z,55.30
2023-02-12T03:15:44.631Z,41.90
2023-02-12T03:18:36.566Z,50.80
2023-02-12T03:21:11.598Z,51.10
2023-02-12T03:23:48.330Z,46.20
2023-02-12T03:26:22.436Z,52.60
2023-02-12T03:28:53.212Z,52.50
2023-02-12T03:31:30.660Z,48.90
2023-02-12T03:34:25.092Z,47.40
2023-02-12T03:37:02.495Z,55.30
2023-02-12T03:39:35.485Z,58.00
2023-02-12T03:42:19.102Z,58.30
2023-02-12T03:44:49.520Z,61.60
2023-02-12T03:47:20.903Z,70.00
2023-02-12T03:50:01.523Z,80.20
2023-02-12T03:52:31.084Z,84.70
2023-02-12T03:54:59.527Z,79.90
2023-02-12T03:57:34.216Z,78.30
2023-02-12T04:00:07.501Z,78.40
2023-02-12T04:02:43.641Z,80.10
2023-02-12T04:05:22.132Z,78.50
2023-02-12T04:07:52.640Z,90.20
2023-02-12T04:10:30.252Z,71.00
2023-02-12T04:13:19.655Z,78.40
2023-02-12T04:16:11.965Z,72.00
2023-02-12T04:18:46.826Z,71.80
2023-02-12T04:21:21.329Z,76.50
2023-02-12T04:24:35.702Z,89.00
2023-02-12T04:27:19.198Z,49.60
2023-02-12T04:29:50.160Z,73.40
2023-02-12T04:32:25.109Z,64.60
2023-02-12T04:35:04.510Z,72.00
2023-02-12T04:37:43.778Z,75.90
2023-02-12T04:40:18.290Z,80.70
2023-02-12T04:42:49.729Z,69.60
2023-02-12T04:45:26.690Z,75.20
2023-02-12T04:47:55.851Z,64.90
2023-02-12T04:50:24.317Z,62.30
2023-02-12T04:52:55.988Z,78.30
2023-02-12T04:55:24.196Z,72.00
2023-02-12T04:57:52.304Z,79.90
2023-02-12T05:00:20.964Z,67.90
2023-02-12T05:02:49.088Z,61.00
2023-02-12T05:05:18.571Z,73.50
2023-02-12T05:07:50.055Z,69.50
2023-02-12T05:10:18.277Z,78.70
2023-02-12T05:12:46.879Z,76.60
2023-02-12T05:15:15.297Z,72.10
2023-02-12T05:17:44.988Z,80.30
2023-02-12T05:20:14.088Z,76.50
2023-02-12T05:22:42.297Z,81.10
2023-02-12T05:25:10.483Z,80.30
2023-02-12T05:27:38.977Z,73.30
2023-02-12T05:30:09.588Z,81.70
2023-02-12T05:32:37.999Z,78.00
2023-02-12T05:35:07.036Z,78.20
2023-02-12T05:37:37.041Z,76.90
2023-02-12T05:40:09.266Z,63.50
2023-02-12T05:42:37.804Z,70.80
2023-02-12T05:45:06.820Z,73.50
2023-02-12T05:47:38.580Z,68.60
2023-02-12T05:50:07.603Z,67.10
2023-02-12T05:52:38.083Z,72.10
2023-02-12T05:55:07.126Z,71.90
2023-02-12T05:57:35.452Z,76.30
2023-02-12T06:00:06.548Z,70.70
2023-02-12T06:02:42.863Z,68.00
2023-02-12T06:05:11.460Z,71.90
2023-02-12T06:07:40.033Z,66.30
2023-02-12T06:10:12.250Z,72.90
2023-02-12T06:12:40.781Z,74.30
2023-02-12T06:15:09.238Z,64.00
2023-02-12T06:17:37.614Z,75.80
2023-02-12T06:20:06.524Z,73.10
2023-02-12T06:22:34.869Z,68.90
2023-02-12T06:25:05.626Z,69.80
2023-02-12T06:27:33.752Z,119.90
2023-02-12T06:30:02.260Z,113.20
2023-02-12T06:32:30.936Z,79.00
2023-02-12T06:34:59.271Z,108.10
2023-02-12T06:37:30.495Z,92.20
2023-02-12T06:39:58.987Z,82.70
2023-02-12T06:42:27.384Z,78.00
2023-02-12T06:44:55.818Z,73.90
2023-02-12T06:47:27.788Z,70.80
2023-02-12T06:49:56.131Z,77.10
2023-02-12T06:52:30.787Z,82.70
2023-02-12T06:54:59.069Z,116.00
2023-02-12T06:57:29.868Z,84.40
2023-02-12T06:59:58.420Z,80.10
2023-02-12T07:02:26.871Z,83.60
2023-02-12T07:04:55.709Z,65.40
2023-02-12T07:07:24.248Z,78.80
2023-02-12T07:09:52.555Z,84.10
2023-02-12T07:12:20.841Z,86.80
2023-02-12T07:14:49.171Z,82.30
2023-02-12T07:17:17.341Z,78.50
2023-02-12T07:19:50.954Z,86.80
2023-02-12T07:22:19.132Z,77.50
2023-02-12T07:24:47.582Z,82.50
2023-02-12T07:27:16.018Z,75.60
2023-02-12T07:29:44.651Z,76.50
2023-02-12T07:32:13.420Z,78.70
2023-02-12T07:34:41.704Z,76.40
2023-02-12T07:37:10.405Z,67.10
2023-02-12T07:39:38.990Z,77.10
2023-02-12T07:42:09.058Z,75.40
2023-02-12T07:44:37.547Z,72.00
2023-02-12T07:47:06.194Z,73.10
2023-02-12T07:49:34.572Z,70.90
2023-02-12T07:52:03.408Z,66.90
2023-02-12T07:54:31.911Z,64.90
2023-02-12T07:57:00.715Z,67.50
2023-02-12T07:59:28.910Z,78.50
2023-02-12T08:01:58.478Z,73.50
2023-02-12T08:04:27.138Z,75.10
2023-02-12T08:06:56.636Z,71.90
2023-02-12T08:09:27.748Z,75.60
2023-02-12T08:11:55.931Z,73.70
2023-02-12T08:14:24.332Z,68.00
2023-02-12T08:16:53.096Z,78.30
2023-02-12T08:19:26.550Z,72.80
2023-02-12T08:21:56.706Z,75.20
2023-02-12T08:24:28.474Z,76.50
2023-02-12T08:26:56.893Z,76.80
2023-02-12T08:29:30.695Z,90.10
2023-02-12T08:34:32.683Z,78.80
2023-02-12T08:37:01.835Z,73.50
2023-02-12T08:39:30.507Z,70.90
2023-02-12T08:42:00.396Z,69.00
2023-02-12T08:44:29.718Z,79.00
2023-02-12T08:46:58.643Z,93.40
2023-02-12T08:49:29.346Z,70.50
2023-02-12T08:51:59.444Z,78.50
2023-02-12T08:54:29.264Z,84.70
2023-02-12T08:57:00.293Z,69.80
2023-02-12T08:59:28.862Z,79.20
2023-02-12T09:02:00.671Z,78.90
2023-02-12T09:04:29.688Z,75.50
2023-02-12T09:07:00.549Z,74.20
2023-02-12T09:09:28.914Z,84.30
2023-02-12T09:11:59.590Z,68.80
2023-02-12T09:14:27.727Z,71.30
2023-02-12T09:16:57.448Z,75.60
2023-02-12T09:19:28.002Z,66.70
2023-02-12T09:21:57.125Z,65.50
2023-02-12T09:24:27.631Z,66.10
2023-02-12T09:26:56.844Z,64.80
2023-02-12T09:29:25.246Z,67.20
2023-02-12T09:31:53.895Z,66.10
2023-02-12T09:34:22.476Z,64.80
2023-02-12T09:36:51.054Z,64.10
2023-02-12T09:39:20.882Z,71.00
2023-02-12T09:42:36.683Z,70.10
2023-02-12T09:45:24.306Z,74.50
2023-02-12T09:48:22.780Z,70.40
2023-02-12T09:50:59.964Z,65.30
2023-02-12T09:53:35.102Z,73.10
2023-02-12T09:56:03.788Z,71.40
2023-02-12T09:58:50.334Z,67.10
2023-02-12T10:01:23.267Z,64.60
2023-02-12T10:03:52.946Z,70.00
2023-02-12T10:06:27.375Z,67.80
2023-02-12T10:08:58.624Z,62.00
2023-02-12T10:11:59.038Z,66.50
2023-02-12T10:14:41.931Z,67.50
2023-02-12T10:17:31.900Z,82.40
2023-02-12T10:20:28.570Z,69.70
2023-02-12T10:23:46.477Z,65.30
2023-02-12T10:26:26.092Z,65.40
2023-02-12T10:28:59.260Z,67.30
2023-02-12T10:31:45.044Z,63.10
2023-02-12T10:34:21.251Z,64.00
2023-02-12T10:36:58.214Z,61.60
2023-02-12T10:39:32.024Z,61.00
2023-02-12T10:42:21.584Z,65.70
2023-02-12T10:44:53.410Z,59.70
2023-02-12T10:47:24.131Z,60.10
2023-02-12T10:50:02.778Z,62.30
2023-02-12T10:52:55.375Z,65.80
2023-02-12T10:55:27.642Z,57.20
2023-02-12T10:58:03.126Z,60.00
2023-02-12T11:00:43.472Z,56.20
2023-02-12T11:03:23.334Z,53.60
2023-02-12T11:05:57.253Z,54.60
2023-02-12T11:08:36.241Z,59.10
2023-02-12T11:11:34.216Z,61.50
2023-02-12T11:14:16.669Z,62.90
2023-02-12T11:16:53.771Z,61.10
2023-02-12T11:19:28.024Z,60.60
2023-02-12T11:22:18.911Z,60.60
2023-02-12T11:25:02.116Z,60.40
2023-02-12T11:27:32.708Z,58.10
2023-02-12T11:30:33.016Z,56.80
2023-02-12T11:33:41.428Z,57.30
2023-02-12T11:36:43.994Z,56.10
2023-02-12T11:39:36.603Z,56.40
2023-02-12T11:42:29.213Z,74.60
2023-02-12T11:44:59.991Z,54.30
2023-02-12T11:47:36.294Z,61.50
2023-02-12T11:50:26.669Z,57.60
2023-02-12T11:53:04.710Z,58.30
2023-02-12T11:55:36.824Z,53.80
2023-02-12T11:58:26.812Z,57.60
2023-02-12T12:01:19.562Z,53.90
2023-02-12T12:04:14.215Z,59.80
2023-02-12T12:07:04.008Z,64.60
2023-02-12T12:09:49.668Z,56.10
2023-02-12T12:12:58.661Z,50.90
2023-02-12T12:15:57.385Z,68.90
2023-02-12T12:18:54.541Z,59.20
2023-02-12T12:21:34.665Z,61.70
2023-02-12T12:24:29.491Z,67.50
2023-02-12T12:27:24.596Z,66.30
2023-02-12T12:30:06.823Z,69.90
2023-02-12T12:32:38.979Z,69.90
2023-02-12T12:35:13.890Z,54.80
2023-02-12T12:37:55.022Z,60.50
2023-02-12T12:40:48.571Z,60.10
2023-02-12T12:43:30.351Z,64.60
2023-02-12T12:46:07.322Z,59.90
2023-02-12T12:49:28.684Z,53.50
2023-02-12T12:52:17.037Z,61.60
2023-02-12T12:55:21.574Z,53.10
2023-02-12T12:57:56.958Z,53.90
2023-02-12T13:00:52.793Z,55.40
2023-02-12T13:03:38.894Z,60.30
2023-02-12T13:06:28.240Z,59.60
2023-02-12T13:09:21.609Z,50.90
2023-02-12T13:12:15.426Z,49.10
2023-02-12T13:15:03.363Z,52.60
2023-02-12T13:17:54.834Z,46.50
2023-02-12T13:20:40.799Z,50.00
2023-02-12T13:23:23.163Z,47.80
2023-02-12T13:26:36.030Z,44.00
2023-02-12T13:29:19.614Z,51.20
2023-02-12T13:31:57.709Z,41.10
2023-02-12T13:34:29.850Z,43.40
2023-02-12T13:37:01.765Z,36.70
2023-02-12T13:39:35.675Z,41.30
2023-02-12T13:42:19.917Z,36.70
2023-02-12T13:45:00.905Z,40.50
2023-02-12T13:47:51.515Z,39.20
2023-02-12T13:50:47.382Z,41.70
2023-02-12T13:53:32.551Z,56.40
2023-02-12T13:56:16.184Z,42.60
2023-02-12T13:58:51.277Z,39.70
2023-02-12T14:01:46.795Z,42.50
2023-02-12T14:04:21.544Z,51.40
2023-02-12T14:07:15.588Z,42.40
2023-02-12T14:12:35.248Z,43.30
2023-02-12T14:15:11.426Z,42.60
2023-02-12T14:17:52.153Z,37.60
2023-02-12T14:20:28.832Z,47.80
2023-02-12T14:23:01.767Z,45.20
2023-02-12T14:25:45.867Z,40.20
2023-02-12T14:28:56.349Z,48.10
2023-02-12T14:31:27.877Z,46.70
2023-02-12T14:34:06.126Z,43.60
2023-02-12T14:36:43.926Z,39.40
2023-02-12T14:39:45.685Z,39.70
2023-02-12T14:42:16.698Z,42.20
2023-02-12T14:44:48.073Z,42.50
2023-02-12T14:47:36.486Z,42.30
2023-02-12T14:50:23.043Z,37.70
2023-02-12T14:53:06.620Z,40.00
2023-02-12T14:55:36.065Z,40.70
2023-02-12T14:58:25.071Z,40.90
2023-02-12T15:00:56.829Z,51.10
2023-02-12T15:03:43.860Z,39.70
2023-02-12T15:06:34.321Z,52.50
2023-02-12T15:09:10.245Z,45.10
2023-02-12T15:12:00.501Z,53.50
2023-02-12T15:14:35.123Z,44.10
2023-02-12T15:17:22.364Z,41.10
2023-02-12T15:20:09.564Z,43.10
2023-02-12T15:22:42.097Z,41.30
2023-02-12T15:25:39.025Z,43.30
2023-02-12T15:28:21.045Z,42.60
2023-02-12T15:31:00.367Z,44.80
2023-02-12T15:33:35.272Z,51.70
2023-02-12T15:36:04.612Z,43.60
2023-02-12T15:38:41.668Z,55.70
2023-02-12T15:41:43.916Z,50.10
2023-02-12T15:44:30.918Z,50.50
2023-02-12T15:47:12.202Z,56.10
2023-02-12T15:49:42.170Z,59.10
2023-02-12T15:52:19.157Z,53.00
2023-02-12T15:54:48.661Z,49.30
2023-02-12T15:57:24.103Z,57.90
2023-02-12T16:00:10.222Z,70.70
2023-02-12T16:02:44.453Z,64.80
2023-02-12T16:05:16.999Z,58.50
2023-02-12T16:07:46.860Z,54.80
2023-02-12T16:10:20.851Z,51.10
2023-02-12T16:12:51.269Z,45.00
2023-02-12T16:15:34.524Z,49.80
2023-02-12T16:18:05.499Z,54.40
2023-02-12T16:20:35.037Z,56.50
2023-02-12T16:23:07.452Z,55.00
2023-02-12T16:25:35.812Z,49.50
2023-02-12T16:28:15.833Z,53.00
2023-02-12T16:30:48.508Z,54.00
2023-02-12T16:33:57.892Z,34.80
2023-02-12T16:36:26.067Z,60.80
2023-02-12T16:39:08.584Z,61.40
2023-02-12T16:41:57.600Z,62.00
2023-02-12T16:44:27.581Z,56.60
2023-02-12T16:46:59.069Z,69.20
2023-02-12T16:49:27.757Z,76.40
2023-02-12T16:52:20.877Z,114.20
2023-02-12T16:54:49.171Z,147.40
2023-02-12T16:57:17.432Z,116.90
2023-02-12T16:59:48.895Z,77.50
2023-02-12T17:02:17.423Z,69.40
2023-02-12T17:04:45.944Z,60.30
2023-02-12T17:07:28.548Z,73.20
2023-02-12T17:09:57.556Z,69.90
2023-02-12T17:12:26.670Z,64.00
2023-02-12T17:14:56.078Z,60.80
2023-02-12T17:17:24.316Z,61.30
2023-02-12T17:19:53.413Z,58.50
2023-02-12T17:22:24.591Z,67.10
2023-02-12T17:24:53.527Z,60.80
2023-02-12T17:27:22.122Z,64.70
2023-02-12T17:29:50.558Z,62.10
2023-02-12T17:32:21.538Z,72.20
2023-02-12T17:34:52.280Z,71.90
2023-02-12T17:37:22.446Z,80.20
2023-02-12T17:39:50.830Z,75.00
2023-02-12T17:42:21.440Z,68.20
2023-02-12T17:44:50.023Z,66.70
2023-02-12T17:47:18.248Z,106.40
2023-02-12T17:49:49.352Z,99.50
2023-02-12T17:52:17.740Z,89.80
2023-02-12T17:54:46.766Z,91.90
2023-02-12T17:57:15.119Z,82.90
2023-02-12T17:59:43.592Z,86.60
2023-02-12T18:02:12.494Z,79.00
2023-02-12T18:04:44.036Z,104.50
2023-02-12T18:07:12.650Z,107.90
2023-02-12T18:09:41.239Z,87.30
2023-02-12T18:12:09.895Z,118.30
2023-02-12T18:14:38.731Z,100.40
2023-02-12T18:17:09.482Z,106.70
2023-02-12T18:19:37.932Z,104.20
2023-02-12T18:22:06.235Z,131.40
2023-02-12T18:24:35.219Z,110.90
2023-02-12T18:27:03.531Z,118.10
2023-02-12T18:29:31.995Z,127.30
2023-02-12T18:32:00.866Z,125.10
2023-02-12T18:34:29.091Z,122.10
2023-02-12T18:36:57.872Z,124.70
2023-02-12T18:39:26.248Z,124.20
2023-02-12T18:41:54.413Z,127.30
2023-02-12T18:44:23.068Z,127.80
2023-02-12T18:46:51.494Z,116.90
2023-02-12T18:49:19.794Z,105.60
2023-02-12T18:51:48.026Z,102.60
2023-02-12T18:54:16.209Z,113.30
2023-02-12T18:56:48.340Z,100.10
2023-02-12T18:59:21.212Z,94.60
2023-02-12T19:01:51.215Z,91.90
2023-02-12T19:04:22.034Z,93.20
2023-02-12T19:06:54.713Z,93.00
2023-02-12T19:09:24.938Z,87.60
2023-02-12T19:11:55.970Z,94.60
2023-02-12T19:14:27.512Z,98.50
2023-02-12T19:16:56.018Z,105.90
2023-02-12T19:19:25.000Z,110.50
2023-02-12T19:21:53.521Z,111.70
2023-02-12T19:24:22.001Z,122.70
2023-02-12T19:26:54.005Z,105.80
2023-02-12T19:29:22.728Z,135.00
2023-02-12T19:31:51.141Z,107.50
2023-02-12T19:34:22.330Z,117.00
2023-02-12T19:36:51.105Z,115.20
2023-02-12T19:39:23.820Z,118.70
2023-02-12T19:41:52.406Z,115.60
2023-02-12T19:44:24.027Z,111.30
2023-02-12T19:46:53.413Z,104.30
2023-02-12T19:49:24.247Z,99.10
2023-02-12T19:51:52.909Z,118.00
2023-02-12T19:54:22.620Z,120.20
2023-02-12T19:56:52.914Z,129.00
2023-02-12T19:59:23.988Z,144.20
2023-02-12T20:01:52.881Z,152.10
2023-02-12T20:04:23.771Z,110.70
2023-02-12T20:06:52.844Z,128.70
2023-02-12T20:09:22.946Z,125.80
2023-02-12T20:11:51.945Z,114.10
2023-02-12T20:14:22.959Z,109.20
2023-02-12T20:16:54.790Z,105.10
2023-02-12T20:19:27.175Z,101.30
2023-02-12T20:21:57.674Z,95.50
2023-02-12T20:24:30.996Z,101.20
2023-02-12T20:27:01.375Z,107.30
2023-02-12T20:29:30.126Z,104.30
2023-02-12T20:31:58.640Z,123.60
2023-02-12T20:34:27.326Z,105.30
2023-02-12T20:36:55.958Z,101.40
2023-02-12T20:39:24.566Z,109.40
2023-02-12T20:41:53.108Z,113.00
2023-02-12T20:44:22.685Z,120.80
2023-02-12T20:46:56.455Z,115.80
2023-02-12T20:49:26.896Z,155.50
2023-02-12T20:51:55.538Z,148.30
2023-02-12T20:54:24.064Z,149.50
2023-02-12T20:56:52.443Z,145.10
2023-02-12T20:59:20.860Z,166.50
2023-02-12T21:01:49.278Z,174.40
2023-02-12T21:04:19.281Z,159.10
2023-02-12T21:06:48.698Z,153.70
2023-02-12T21:09:19.181Z,147.30
2023-02-12T21:11:48.452Z,123.70
2023-02-12T21:14:23.244Z,136.60
2023-02-12T21:16:55.014Z,125.60
2023-02-12T21:19:23.989Z,138.00
2023-02-12T21:21:52.977Z,113.60
2023-02-12T21:24:26.558Z,118.80
2023-02-12T21:26:56.764Z,140.70
2023-02-12T21:29:27.611Z,114.00
2023-02-12T21:31:56.176Z,104.60
2023-02-12T21:34:24.597Z,96.90
2023-02-12T21:36:55.455Z,105.90
2023-02-12T21:39:27.785Z,106.80
2023-02-12T21:42:03.197Z,97.50
2023-02-12T21:44:35.566Z,99.60
2023-02-12T21:47:04.826Z,104.20
2023-02-12T21:49:33.047Z,100.10
2023-02-12T21:52:03.637Z,97.40
2023-02-12T21:54:32.312Z,115.80
2023-02-12T21:57:00.848Z,96.00
2023-02-12T21:59:31.933Z,101.50
2023-02-12T22:02:00.919Z,72.20
2023-02-12T22:04:29.529Z,72.70
2023-02-12T22:06:59.786Z,88.50
2023-02-12T22:09:28.110Z,89.20
2023-02-12T22:11:56.399Z,93.00
2023-02-12T22:14:24.544Z,82.10
2023-02-12T22:16:52.938Z,77.30
2023-02-12T22:19:21.501Z,80.90
2023-02-12T22:21:53.653Z,74.40
2023-02-12T22:24:22.128Z,75.90
2023-02-12T22:26:50.511Z,85.50
2023-02-12T22:29:18.718Z,73.60
2023-02-12T22:31:47.747Z,79.20
2023-02-12T22:34:19.106Z,72.60
2023-02-12T22:36:48.340Z,67.60
2023-02-12T22:39:17.752Z,68.30
2023-02-12T22:41:49.386Z,78.80
2023-02-12T22:44:21.436Z,87.80
2023-02-12T22:46:50.365Z,98.10
2023-02-12T22:49:19.032Z,88.00
2023-02-12T22:51:47.659Z,83.10
2023-02-12T22:54:17.861Z,82.50
2023-02-12T22:56:50.308Z,85.80
2023-02-12T22:59:18.957Z,78.20
2023-02-12T23:01:47.201Z,93.20
2023-02-12T23:04:18.255Z,106.60
2023-02-12T23:06:47.211Z,99.70
2023-02-12T23:09:19.167Z,107.20
2023-02-12T23:11:51.717Z,120.60
2023-02-12T23:14:19.925Z,119.20
2023-02-12T23:16:48.687Z,121.90
2023-02-12T23:19:16.861Z,122.00
2023-02-12T23:21:45.123Z,110.90
2023-02-12T23:24:14.867Z,109.70
2023-02-12T23:26:43.516Z,107.60
2023-02-12T23:29:11.928Z,107.60
2023-02-12T23:31:40.196Z,112.30
2023-02-12T23:34:08.659Z,105.30
2023-02-12T23:36:36.992Z,93.10
2023-02-12T23:39:06.182Z,100.70
2023-02-12T23:41:35.332Z,100.00
2023-02-12T23:44:04.285Z,100.60
2023-02-12T23:46:32.368Z,99.50
2023-02-12T23:49:00.553Z,95.30
2023-02-12T23:51:29.270Z,98.60
2023-02-12T23:53:57.503Z,112.50
2023-02-12T23:56:26.241Z,106.20
2023-02-12T23:58:57.687Z,117.30
